Bismarck, North Dakota
Current Conditions -  °F | °C
As of 11:52 AM on Wednesday 26 Nov 2014 (Local Time) from KBIS Reporting Station
Overcast Overcast  
Wind Chill: 11°   Ceiling: 8500
Heat Index: 11°   Visibility: 10mi
Dew Point:   Wind: 0mph
Humidity: 70%   Direction: NA
Pressure: 30.38"   Gusts: NA
Location:  46.81°N, 100.77°W
Report Text: KBIS 261752Z 00000KT 10SM FEW055 OVC085 M12/M16 A3038 RMK AO2 SNE44 SLP325 P0000 60002 T11171161 11117 21144 53007
Loading
Personal Weather Stations






























Interactive Weather Map New forecast layout! Learn more

10-Day Weather Forecast

Advertisements
Track Severe Weather on mobile